createdAt,value
2018-07-11T00:01:12.635Z,7.90
2018-07-11T00:03:48.935Z,8.23
2018-07-11T00:06:21.577Z,8.23
2018-07-11T00:08:53.897Z,8.50
2018-07-11T00:11:26.284Z,8.57
2018-07-11T00:13:58.756Z,8.00
2018-07-11T00:16:30.555Z,7.80
2018-07-11T00:19:03.115Z,8.63
2018-07-11T00:21:35.734Z,7.93
2018-07-11T00:24:08.135Z,8.53
2018-07-11T00:26:40.375Z,7.87
2018-07-11T00:29:12.595Z,8.80
2018-07-11T00:31:45.415Z,8.10
2018-07-11T00:34:17.855Z,7.97
2018-07-11T00:36:49.817Z,8.00
2018-07-11T00:39:22.375Z,7.93
2018-07-11T00:41:54.456Z,7.73
2018-07-11T00:44:26.455Z,8.27
2018-07-11T00:46:58.575Z,8.80
2018-07-11T00:49:30.396Z,8.30
2018-07-11T00:52:02.976Z,8.30
2018-07-11T00:54:34.875Z,8.87
2018-07-11T00:57:07.076Z,8.70
2018-07-11T00:59:43.135Z,8.00
2018-07-11T01:02:14.955Z,8.03
2018-07-11T01:04:47.655Z,8.07
2018-07-11T01:07:19.196Z,9.17
2018-07-11T01:09:51.836Z,7.87
2018-07-11T01:12:23.796Z,8.20
2018-07-11T01:14:55.815Z,8.70
2018-07-11T01:17:33.116Z,8.73
2018-07-11T01:20:06.036Z,8.67
2018-07-11T01:22:37.855Z,9.13
2018-07-11T01:25:10.236Z,8.70
2018-07-11T01:27:42.375Z,8.07
2018-07-11T01:30:13.715Z,7.43
2018-07-11T01:32:45.996Z,6.73
2018-07-11T01:35:17.916Z,7.90
2018-07-11T01:37:48.756Z,7.90
2018-07-11T01:40:20.535Z,8.87
2018-07-11T01:42:52.315Z,8.60
2018-07-11T01:45:24.935Z,9.00
2018-07-11T01:47:56.856Z,9.03
2018-07-11T01:50:29.275Z,8.67
2018-07-11T01:53:01.836Z,8.30
2018-07-11T01:55:34.435Z,8.50
2018-07-11T01:58:06.915Z,8.60
2018-07-11T02:00:39.415Z,7.87
2018-07-11T02:03:12.675Z,8.40
2018-07-11T02:05:44.955Z,9.00
2018-07-11T02:08:16.539Z,8.87
2018-07-11T02:10:49.015Z,9.07
2018-07-11T02:13:20.855Z,8.40
2018-07-11T02:15:53.739Z,7.90
2018-07-11T02:18:28.715Z,8.00
2018-07-11T02:21:01.896Z,8.30
2018-07-11T02:23:38.575Z,8.53
2018-07-11T02:26:11.395Z,8.53
2018-07-11T02:28:43.015Z,7.90
2018-07-11T02:31:15.536Z,17.87
2018-07-11T02:33:46.978Z,7.83
2018-07-11T02:36:19.336Z,7.50
2018-07-11T02:38:52.266Z,8.10
2018-07-11T02:41:24.517Z,7.43
2018-07-11T02:43:56.696Z,7.50
2018-07-11T02:46:33.097Z,6.97
2018-07-11T02:49:05.936Z,7.50
2018-07-11T02:51:38.076Z,8.30
2018-07-11T02:54:09.616Z,8.90
2018-07-11T02:56:41.776Z,8.10
2018-07-11T02:59:14.715Z,8.30
2018-07-11T03:01:47.055Z,7.60
2018-07-11T03:04:18.775Z,8.00
2018-07-11T03:06:50.836Z,7.10
2018-07-11T03:09:22.697Z,6.50
2018-07-11T03:11:55.176Z,7.00
2018-07-11T03:14:27.255Z,6.80
2018-07-11T03:16:59.216Z,7.30
2018-07-11T03:19:32.655Z,7.00
2018-07-11T03:22:03.955Z,7.17
2018-07-11T03:24:36.935Z,7.30
2018-07-11T03:27:09.795Z,6.80
2018-07-11T03:29:41.475Z,6.93
2018-07-11T03:32:13.895Z,7.40
2018-07-11T03:34:46.375Z,7.23
2018-07-11T03:37:18.095Z,7.30
2018-07-11T03:39:50.375Z,7.50
2018-07-11T03:42:22.395Z,6.57
2018-07-11T03:44:54.895Z,10.00
2018-07-11T03:47:26.679Z,7.07
2018-07-11T03:49:58.595Z,7.40
2018-07-11T03:52:31.355Z,8.10
2018-07-11T03:55:03.175Z,7.20
2018-07-11T03:57:35.055Z,7.73
2018-07-11T04:00:06.855Z,6.80
2018-07-11T04:02:39.195Z,8.10
2018-07-11T04:05:11.695Z,7.90
2018-07-11T04:07:42.595Z,7.17
2018-07-11T04:10:14.775Z,7.87
2018-07-11T04:12:46.536Z,7.73
2018-07-11T04:15:19.415Z,7.80
2018-07-11T04:17:49.435Z,7.60
2018-07-11T04:20:20.996Z,7.90
2018-07-11T04:22:52.837Z,6.97
2018-07-11T04:25:25.256Z,7.20
2018-07-11T04:27:57.275Z,7.40
2018-07-11T04:30:30.535Z,7.30
2018-07-11T04:33:02.216Z,6.33
2018-07-11T04:35:34.855Z,6.67
2018-07-11T04:38:07.075Z,6.47
2018-07-11T04:40:39.015Z,6.77
2018-07-11T04:43:11.715Z,6.40
2018-07-11T04:45:43.815Z,7.50
2018-07-11T04:48:15.595Z,5.80
2018-07-11T04:50:49.137Z,5.90
2018-07-11T04:53:26.875Z,5.60
2018-07-11T04:56:04.456Z,5.53
2018-07-11T04:58:36.055Z,6.97
2018-07-11T05:01:08.615Z,7.17
2018-07-11T05:03:40.836Z,6.73
2018-07-11T05:06:13.096Z,6.57
2018-07-11T05:08:44.576Z,6.67
2018-07-11T05:11:16.684Z,7.63
2018-07-11T05:13:49.215Z,6.50
2018-07-11T05:16:20.393Z,5.97
2018-07-11T05:18:52.777Z,6.70
2018-07-11T05:21:24.615Z,8.33
2018-07-11T05:23:57.115Z,6.10
2018-07-11T05:26:29.135Z,6.20
2018-07-11T05:29:01.537Z,6.30
2018-07-11T05:31:33.737Z,6.63
2018-07-11T05:34:05.255Z,5.20
2018-07-11T05:36:37.356Z,5.90
2018-07-11T05:39:09.876Z,5.43
2018-07-11T05:41:42.096Z,5.50
2018-07-11T05:44:14.856Z,5.53
2018-07-11T05:46:47.857Z,5.30
2018-07-11T05:49:19.835Z,5.37
2018-07-11T05:51:51.820Z,5.53
2018-07-11T05:54:23.595Z,5.60
2018-07-11T05:56:55.356Z,5.00
2018-07-11T05:59:26.857Z,4.73
2018-07-11T06:01:59.456Z,5.70
2018-07-11T06:04:30.716Z,4.90
2018-07-11T06:07:03.356Z,5.30
2018-07-11T06:09:34.859Z,5.50
2018-07-11T06:12:07.816Z,5.50
2018-07-11T06:14:40.036Z,5.30
2018-07-11T06:17:12.257Z,6.10
2018-07-11T06:19:44.696Z,5.57
2018-07-11T06:22:16.555Z,5.53
2018-07-11T06:24:48.956Z,6.00
2018-07-11T06:27:21.056Z,6.90
2018-07-11T06:29:53.416Z,5.90
2018-07-11T06:32:26.256Z,6.10
2018-07-11T06:34:58.156Z,6.60
2018-07-11T06:37:30.256Z,5.63
2018-07-11T06:40:03.256Z,5.77
2018-07-11T06:42:35.336Z,5.97
2018-07-11T06:45:07.976Z,5.50
2018-07-11T06:47:39.778Z,5.70
2018-07-11T06:50:12.757Z,6.73
2018-07-11T06:52:45.076Z,5.37
2018-07-11T06:55:17.176Z,5.60
2018-07-11T06:57:48.016Z,5.63
2018-07-11T07:00:20.376Z,5.23
2018-07-11T07:02:52.416Z,7.60
2018-07-11T07:05:24.275Z,5.63
2018-07-11T07:07:57.108Z,5.30
2018-07-11T07:10:29.292Z,6.30
2018-07-11T07:13:01.128Z,5.73
2018-07-11T07:15:33.026Z,6.30
2018-07-11T07:18:04.706Z,5.73
2018-07-11T07:20:36.846Z,5.10
2018-07-11T07:23:08.926Z,5.17
2018-07-11T07:25:40.263Z,4.83
2018-07-11T07:28:11.452Z,5.20
2018-07-11T07:30:42.507Z,4.67
2018-07-11T07:33:14.450Z,5.20
2018-07-11T07:35:47.530Z,4.67
2018-07-11T07:38:20.250Z,4.93
2018-07-11T07:40:52.790Z,5.47
2018-07-11T07:43:24.325Z,5.23
2018-07-11T07:45:55.498Z,5.87
2018-07-11T07:48:27.338Z,8.03
2018-07-11T07:50:59.858Z,5.00
2018-07-11T07:53:32.199Z,5.43
2018-07-11T07:56:04.318Z,5.23
2018-07-11T07:58:36.420Z,5.90
2018-07-11T08:01:08.962Z,5.53
2018-07-11T08:03:40.918Z,5.20
2018-07-11T08:06:11.678Z,14.03
2018-07-11T08:08:43.738Z,8.10
2018-07-11T08:11:15.237Z,7.70
2018-07-11T08:13:47.658Z,5.87
2018-07-11T08:16:19.562Z,8.43
2018-07-11T08:18:51.318Z,7.20
2018-07-11T08:21:22.853Z,5.60
2018-07-11T08:24:03.878Z,5.87
2018-07-11T08:28:47.058Z,5.40
2018-07-11T08:31:59.478Z,5.80
2018-07-11T08:34:55.221Z,10.80
2018-07-11T08:39:38.960Z,5.70
2018-07-11T08:42:21.041Z,5.77
2018-07-11T08:45:27.938Z,5.90
2018-07-11T08:48:43.898Z,5.93
2018-07-11T08:51:32.738Z,6.40
2018-07-11T08:54:36.299Z,5.77
2018-07-11T08:57:20.558Z,6.23
2018-07-11T09:00:01.960Z,6.53
2018-07-11T09:02:44.578Z,7.37
2018-07-11T09:07:29.919Z,7.10
2018-07-11T09:11:08.657Z,6.10
2018-07-11T09:13:51.519Z,7.20
2018-07-11T09:16:36.518Z,11.50
2018-07-11T09:20:17.419Z,7.30
2018-07-11T09:23:16.319Z,6.67
2018-07-11T09:25:49.017Z,7.10
2018-07-11T09:28:21.498Z,6.77
2018-07-11T09:30:53.918Z,6.30
2018-07-11T09:33:26.277Z,6.10
2018-07-11T09:35:58.847Z,5.00
2018-07-11T09:38:31.404Z,6.20
2018-07-11T09:41:03.623Z,5.10
2018-07-11T09:43:35.724Z,4.80
2018-07-11T09:46:09.064Z,4.93
2018-07-11T09:48:40.783Z,4.70
2018-07-11T09:51:13.947Z,5.63
2018-07-11T09:53:45.427Z,4.70
2018-07-11T09:56:18.166Z,4.00
2018-07-11T09:58:50.926Z,4.30
2018-07-11T10:01:25.568Z,3.90
2018-07-11T10:03:57.729Z,4.47
2018-07-11T10:06:30.880Z,4.70
2018-07-11T10:09:04.393Z,4.90
2018-07-11T10:11:36.893Z,4.30
2018-07-11T10:14:08.772Z,4.90
2018-07-11T10:16:42.073Z,5.10
2018-07-11T10:19:13.332Z,4.50
2018-07-11T10:21:46.273Z,4.70
2018-07-11T10:24:19.852Z,4.37
2018-07-11T10:26:51.543Z,3.93
2018-07-11T10:29:24.020Z,4.20
2018-07-11T10:31:56.061Z,3.90
2018-07-11T10:34:27.410Z,4.67
2018-07-11T10:36:59.383Z,4.00
2018-07-11T10:39:31.440Z,4.77
2018-07-11T10:42:03.021Z,5.00
2018-07-11T10:44:35.362Z,4.80
2018-07-11T10:47:10.562Z,5.30
2018-07-11T10:49:43.380Z,6.60
2018-07-11T10:52:15.772Z,4.60
2018-07-11T10:54:47.584Z,5.50
2018-07-11T10:57:20.184Z,5.13
2018-07-11T10:59:51.544Z,4.90
2018-07-11T11:02:24.625Z,5.20
2018-07-11T11:04:56.736Z,5.10
2018-07-11T11:07:29.279Z,5.30
2018-07-11T11:10:01.940Z,5.20
2018-07-11T11:12:34.078Z,5.53
2018-07-11T11:15:05.742Z,5.70
2018-07-11T11:17:38.765Z,5.07
2018-07-11T11:20:10.141Z,5.23
2018-07-11T11:22:41.898Z,6.33
2018-07-11T11:25:13.478Z,6.20
2018-07-11T11:27:46.258Z,6.90
2018-07-11T11:30:16.532Z,6.03
2018-07-11T11:32:48.633Z,6.23
2018-07-11T11:35:20.633Z,6.70
2018-07-11T11:37:51.290Z,6.87
2018-07-11T11:40:22.948Z,5.63
2018-07-11T11:42:54.747Z,5.47
2018-07-11T11:45:26.524Z,5.10
2018-07-11T11:48:00.441Z,5.10
2018-07-11T11:50:32.529Z,4.60
2018-07-11T11:53:04.244Z,4.80
2018-07-11T11:55:35.822Z,5.60
2018-07-11T11:58:08.222Z,6.10
2018-07-11T12:00:39.362Z,5.20
2018-07-11T12:03:11.322Z,5.00
2018-07-11T12:05:42.954Z,5.87
2018-07-11T12:08:14.295Z,4.50
2018-07-11T12:10:46.318Z,4.63
2018-07-11T12:13:19.059Z,4.90
2018-07-11T12:15:50.829Z,4.57
2018-07-11T12:18:24.027Z,4.43
2018-07-11T12:21:00.473Z,4.80
2018-07-11T12:23:31.767Z,4.47
2018-07-11T12:26:09.924Z,4.73
2018-07-11T12:28:41.188Z,5.17
2018-07-11T12:31:13.451Z,4.57
2018-07-11T12:33:45.445Z,4.70
2018-07-11T12:36:18.038Z,10.20
2018-07-11T12:38:52.357Z,4.60
2018-07-11T12:41:24.397Z,5.73
2018-07-11T12:43:57.317Z,4.60
2018-07-11T12:46:29.739Z,4.80
2018-07-11T12:49:04.818Z,5.50
2018-07-11T12:51:37.918Z,5.50
2018-07-11T12:54:09.845Z,5.13
2018-07-11T12:56:43.038Z,5.50
2018-07-11T12:59:16.018Z,4.57
2018-07-11T13:01:48.518Z,5.30
2018-07-11T13:04:20.577Z,6.47
2018-07-11T13:06:53.418Z,5.53
2018-07-11T13:09:25.623Z,4.10
2018-07-11T13:11:57.358Z,4.33
2018-07-11T13:14:29.348Z,5.57
2018-07-11T13:17:00.858Z,4.90
2018-07-11T13:19:32.638Z,5.17
2018-07-11T13:22:04.658Z,3.93
2018-07-11T13:24:37.637Z,4.57
2018-07-11T13:27:09.277Z,4.93
2018-07-11T13:29:42.238Z,4.97
2018-07-11T13:32:14.438Z,4.83
2018-07-11T13:34:46.657Z,5.70
2018-07-11T13:37:18.778Z,4.47
2018-07-11T13:39:50.098Z,4.43
2018-07-11T13:42:22.138Z,4.10
2018-07-11T13:44:53.938Z,4.83
2018-07-11T13:47:27.699Z,4.53
2018-07-11T13:50:00.439Z,5.03
2018-07-11T13:52:32.478Z,4.00
2018-07-11T13:55:05.146Z,5.20
2018-07-11T13:57:38.139Z,4.50
2018-07-11T14:00:09.858Z,4.33
2018-07-11T14:02:41.671Z,4.27
2018-07-11T14:05:13.308Z,5.83
2018-07-11T14:07:45.029Z,4.30
2018-07-11T14:10:16.928Z,4.60
2018-07-11T14:12:49.127Z,5.37
2018-07-11T14:15:21.569Z,4.40
2018-07-11T14:17:53.108Z,4.17
2018-07-11T14:20:25.238Z,3.77
2018-07-11T14:23:01.185Z,4.00
2018-07-11T14:25:33.168Z,4.43
2018-07-11T14:28:05.249Z,4.60
2018-07-11T14:30:38.248Z,3.97
2018-07-11T14:33:11.828Z,5.10
2018-07-11T14:35:44.490Z,4.80
2018-07-11T14:38:16.789Z,4.30
2018-07-11T14:40:48.629Z,4.40
2018-07-11T14:43:21.388Z,4.00
2018-07-11T14:45:54.092Z,4.90
2018-07-11T14:48:26.188Z,3.80
2018-07-11T14:50:59.108Z,3.80
2018-07-11T14:53:31.167Z,4.23
2018-07-11T14:56:03.488Z,4.67
2018-07-11T14:58:35.088Z,4.20
2018-07-11T15:01:07.688Z,3.90
2018-07-11T15:03:40.209Z,4.70
2018-07-11T15:06:12.008Z,4.47
2018-07-11T15:08:44.720Z,4.43
2018-07-11T15:11:16.668Z,4.57
2018-07-11T15:13:49.408Z,5.00
2018-07-11T15:16:20.967Z,4.70
2018-07-11T15:18:53.347Z,7.20
2018-07-11T15:21:25.008Z,4.33
2018-07-11T15:23:57.987Z,4.43
2018-07-11T15:26:29.528Z,5.00
2018-07-11T15:29:01.368Z,4.17
2018-07-11T15:31:33.790Z,5.03
2018-07-11T15:34:06.528Z,4.70
2018-07-11T15:36:38.188Z,5.17
2018-07-11T15:39:10.638Z,4.40
2018-07-11T15:41:41.928Z,5.20
2018-07-11T15:44:14.616Z,4.87
2018-07-11T15:46:46.037Z,5.40
2018-07-11T15:49:18.357Z,4.33
2018-07-11T15:51:50.076Z,6.60
2018-07-11T15:54:23.516Z,5.97
2018-07-11T15:56:56.665Z,4.87
2018-07-11T15:59:30.054Z,5.00
2018-07-11T16:02:01.319Z,4.97
2018-07-11T16:04:39.138Z,4.60
2018-07-11T16:07:11.398Z,4.87
2018-07-11T16:09:52.317Z,5.07
2018-07-11T16:12:25.116Z,4.80
2018-07-11T16:14:58.396Z,5.13
2018-07-11T16:17:30.356Z,5.17
2018-07-11T16:20:02.257Z,5.10
2018-07-11T16:22:35.256Z,5.07
2018-07-11T16:25:07.520Z,4.80
2018-07-11T16:27:39.757Z,5.33
2018-07-11T16:30:12.917Z,5.30
2018-07-11T16:32:44.317Z,4.53
2018-07-11T16:35:17.277Z,5.40
2018-07-11T16:37:48.957Z,4.93
2018-07-11T16:40:21.377Z,4.53
2018-07-11T16:42:54.919Z,4.70
2018-07-11T16:45:27.417Z,5.30
2018-07-11T16:47:59.862Z,4.60
2018-07-11T16:50:32.237Z,4.33
2018-07-11T16:53:04.697Z,4.77
2018-07-11T16:55:36.977Z,5.70
2018-07-11T16:58:09.117Z,4.73
2018-07-11T17:00:42.174Z,5.07
2018-07-11T17:03:16.018Z,4.80
2018-07-11T17:05:55.398Z,4.57
2018-07-11T17:08:32.476Z,4.20
2018-07-11T17:11:19.836Z,5.40
2018-07-11T17:13:56.956Z,5.33
2018-07-11T17:16:37.597Z,4.73
2018-07-11T17:19:15.357Z,4.90
2018-07-11T17:21:50.376Z,5.20
2018-07-11T17:24:23.196Z,5.07
2018-07-11T17:26:57.836Z,5.00
2018-07-11T17:29:32.117Z,5.70
2018-07-11T17:32:10.716Z,5.10
2018-07-11T17:34:43.717Z,6.43
2018-07-11T17:37:16.017Z,5.00
2018-07-11T17:40:09.016Z,5.30
2018-07-11T17:42:42.036Z,5.50
2018-07-11T17:45:19.197Z,6.50
2018-07-11T17:50:01.037Z,6.10
2018-07-11T17:52:36.198Z,4.80
2018-07-11T17:55:10.638Z,5.20
2018-07-11T17:58:12.467Z,5.73
2018-07-11T18:00:55.357Z,5.10
2018-07-11T18:03:35.317Z,5.87
2018-07-11T18:06:43.197Z,5.63
2018-07-11T18:09:15.997Z,6.10
2018-07-11T18:11:55.677Z,5.60
2018-07-11T18:14:40.377Z,5.70
2018-07-11T18:18:26.078Z,5.60
2018-07-11T18:22:07.359Z,5.10
2018-07-11T18:26:59.718Z,6.47
2018-07-11T18:29:40.772Z,6.00
2018-07-11T18:34:31.398Z,6.07
2018-07-11T18:37:10.337Z,5.70
2018-07-11T18:40:21.098Z,6.67
2018-07-11T18:43:01.218Z,6.10
2018-07-11T18:45:40.538Z,6.23
2018-07-11T18:57:58.280Z,6.57
2018-07-11T19:01:09.458Z,6.30
2018-07-11T19:05:57.595Z,8.20
2018-07-11T19:08:43.358Z,7.50
2018-07-11T19:11:25.238Z,7.10
2018-07-11T19:14:08.918Z,6.17
2018-07-11T19:16:51.358Z,6.17
2018-07-11T19:19:34.246Z,5.63
2018-07-11T19:22:13.679Z,6.40
2018-07-11T19:24:54.237Z,5.93
2018-07-11T19:27:39.797Z,6.47
2018-07-11T19:30:19.058Z,6.93
2018-07-11T19:33:03.381Z,6.47
2018-07-11T19:35:44.678Z,6.27
2018-07-11T19:38:30.498Z,6.53
2018-07-11T19:41:17.179Z,6.97
2018-07-11T19:44:04.477Z,6.60
2018-07-11T19:47:54.278Z,6.50
2018-07-11T19:50:39.878Z,5.80
2018-07-11T19:54:18.919Z,6.70
2018-07-11T19:56:53.098Z,7.47
2018-07-11T19:59:25.598Z,6.70
2018-07-11T20:01:58.080Z,8.20
2018-07-11T20:04:30.699Z,8.50
2018-07-11T20:07:03.058Z,8.80
2018-07-11T20:09:36.038Z,8.80
2018-07-11T20:12:07.258Z,9.03
2018-07-11T20:14:39.419Z,7.80
2018-07-11T20:17:11.508Z,7.67
2018-07-11T20:19:43.928Z,8.40
2018-07-11T20:22:16.629Z,7.20
2018-07-11T20:24:48.808Z,7.07
2018-07-11T20:27:20.648Z,7.60
2018-07-11T20:29:52.788Z,9.80
2018-07-11T20:32:24.668Z,8.03
2018-07-11T20:34:56.548Z,7.87
2018-07-11T20:37:28.888Z,6.30
2018-07-11T20:40:02.388Z,6.70
2018-07-11T20:42:34.688Z,6.30
2018-07-11T20:45:06.908Z,6.30
2018-07-11T20:47:39.428Z,5.73
2018-07-11T20:50:11.929Z,7.87
2018-07-11T20:52:43.688Z,6.87
2018-07-11T20:55:16.288Z,8.10
2018-07-11T20:57:48.251Z,9.40
2018-07-11T21:00:29.509Z,7.57
2018-07-11T21:03:10.868Z,8.20
2018-07-11T21:05:54.748Z,7.30
2018-07-11T21:09:38.247Z,7.27
2018-07-11T21:12:51.827Z,7.07
2018-07-11T21:15:59.568Z,7.23
2018-07-11T21:19:07.687Z,7.53
2018-07-11T21:21:41.309Z,7.17
2018-07-11T21:24:14.408Z,7.50
2018-07-11T21:26:47.147Z,7.37
2018-07-11T21:29:19.049Z,7.10
2018-07-11T21:31:51.468Z,7.73
2018-07-11T21:34:22.867Z,8.00
2018-07-11T21:36:55.667Z,8.37
2018-07-11T21:39:28.388Z,7.43
2018-07-11T21:42:00.148Z,7.70
2018-07-11T21:44:33.068Z,7.50
2018-07-11T21:47:05.008Z,7.60
2018-07-11T21:49:36.627Z,8.10
2018-07-11T21:52:09.507Z,7.60
2018-07-11T21:54:41.888Z,7.10
2018-07-11T21:57:13.747Z,7.80
2018-07-11T21:59:46.387Z,10.80
2018-07-11T22:02:18.847Z,9.60
2018-07-11T22:04:50.227Z,8.27
2018-07-11T22:07:21.448Z,8.67
2018-07-11T22:09:53.630Z,7.53
2018-07-11T22:12:25.328Z,8.23
2018-07-11T22:14:57.288Z,8.20
2018-07-11T22:19:36.688Z,7.93
2018-07-11T22:22:06.448Z,7.60
2018-07-11T22:24:35.228Z,8.20
2018-07-11T22:27:04.688Z,7.50
2018-07-11T22:29:33.707Z,10.90
2018-07-11T22:32:03.208Z,15.43
2018-07-11T22:34:33.007Z,7.30
2018-07-11T22:37:02.468Z,9.37
2018-07-11T22:39:32.467Z,7.87
2018-07-11T22:42:01.568Z,8.07
2018-07-11T22:44:30.807Z,27.13
2018-07-11T22:47:00.727Z,11.00
2018-07-11T22:49:30.747Z,7.70
2018-07-11T22:52:00.107Z,7.93
2018-07-11T22:54:30.367Z,7.40
2018-07-11T22:56:59.907Z,8.33
2018-07-11T22:59:30.269Z,7.40
2018-07-11T23:01:59.807Z,7.10
2018-07-11T23:04:28.907Z,6.57
2018-07-11T23:06:59.027Z,7.57
2018-07-11T23:09:28.371Z,7.60
2018-07-11T23:11:57.849Z,7.43
2018-07-11T23:14:27.347Z,7.30
2018-07-11T23:16:56.348Z,7.50
2018-07-11T23:19:25.988Z,6.60
2018-07-11T23:21:54.847Z,7.10
2018-07-11T23:24:25.162Z,10.20
2018-07-11T23:26:54.468Z,7.20
2018-07-11T23:29:24.188Z,8.07
2018-07-11T23:31:53.368Z,7.07
2018-07-11T23:34:22.488Z,6.77
2018-07-11T23:36:51.887Z,6.70
2018-07-11T23:39:21.648Z,7.37
2018-07-11T23:41:50.888Z,8.07
2018-07-11T23:44:20.631Z,7.70
2018-07-11T23:46:49.808Z,7.57
2018-07-11T23:49:19.055Z,7.13
2018-07-11T23:51:48.208Z,7.60
2018-07-11T23:54:17.409Z,7.30
2018-07-11T23:56:46.707Z,7.60
2018-07-11T23:59:16.127Z,7.40
